createdAt,value
2022-08-19T00:02:00.481Z,10.80
2022-08-19T00:04:32.944Z,10.17
2022-08-19T00:07:02.284Z,11.13
2022-08-19T00:09:32.467Z,11.63
2022-08-19T00:12:02.368Z,11.40
2022-08-19T00:14:33.034Z,10.90
2022-08-19T00:17:04.144Z,10.73
2022-08-19T00:19:33.074Z,11.00
2022-08-19T00:22:03.657Z,11.07
2022-08-19T00:24:34.730Z,12.07
2022-08-19T00:27:24.945Z,11.90
2022-08-19T00:29:53.929Z,10.73
2022-08-19T00:32:23.918Z,11.50
2022-08-19T00:34:54.625Z,10.90
2022-08-19T00:37:26.720Z,10.53
2022-08-19T00:39:58.050Z,10.57
2022-08-19T00:42:29.636Z,10.93
2022-08-19T00:44:58.357Z,9.90
2022-08-19T00:47:27.142Z,10.63
2022-08-19T00:50:00.745Z,11.23
2022-08-19T00:52:32.114Z,10.80
2022-08-19T00:55:03.642Z,11.30
2022-08-19T00:57:37.492Z,10.20
2022-08-19T01:00:10.935Z,9.13
2022-08-19T01:02:40.071Z,9.40
2022-08-19T01:05:13.180Z,9.43
2022-08-19T01:07:43.790Z,10.33
2022-08-19T01:10:19.686Z,10.30
2022-08-19T01:12:49.018Z,11.60
2022-08-19T01:15:20.984Z,10.57
2022-08-19T01:17:50.448Z,9.70
2022-08-19T01:20:22.340Z,10.87
2022-08-19T01:22:54.479Z,10.30
2022-08-19T01:25:27.345Z,9.90
2022-08-19T01:28:01.702Z,10.73
2022-08-19T01:30:44.276Z,12.60
2022-08-19T01:33:13.556Z,11.53
2022-08-19T01:35:43.098Z,11.30
2022-08-19T01:38:23.665Z,9.90
2022-08-19T01:40:53.467Z,10.83
2022-08-19T01:43:22.429Z,9.63
2022-08-19T01:45:52.159Z,10.93
2022-08-19T01:48:20.998Z,11.00
2022-08-19T01:50:50.058Z,10.20
2022-08-19T01:53:20.188Z,10.50
2022-08-19T01:55:49.813Z,10.43
2022-08-19T01:58:21.986Z,11.57
2022-08-19T02:00:51.389Z,10.53
2022-08-19T02:03:20.115Z,9.80
2022-08-19T02:05:48.882Z,10.97
2022-08-19T02:08:17.520Z,10.50
2022-08-19T02:10:47.733Z,11.20
2022-08-19T02:13:16.628Z,11.47
2022-08-19T02:15:53.162Z,10.10
2022-08-19T02:18:22.997Z,11.30
2022-08-19T02:20:57.011Z,11.17
2022-08-19T02:23:25.640Z,11.13
2022-08-19T02:25:55.767Z,12.07
2022-08-19T02:28:24.424Z,10.80
2022-08-19T02:30:53.131Z,11.50
2022-08-19T02:33:21.904Z,10.53
2022-08-19T02:35:50.583Z,10.77
2022-08-19T02:38:27.134Z,11.27
2022-08-19T02:40:59.304Z,11.50
2022-08-19T02:43:32.216Z,11.80
2022-08-19T02:46:03.245Z,12.20
2022-08-19T02:48:32.689Z,12.20
2022-08-19T02:51:01.343Z,11.47
2022-08-19T02:53:30.492Z,11.83
2022-08-19T02:56:00.611Z,11.47
2022-08-19T02:58:29.310Z,11.50
2022-08-19T03:00:58.925Z,12.23
2022-08-19T03:03:28.128Z,12.07
2022-08-19T03:06:10.298Z,11.20
2022-08-19T03:08:40.135Z,10.93
2022-08-19T03:11:15.715Z,11.73
2022-08-19T03:13:45.043Z,12.57
2022-08-19T03:16:15.281Z,11.70
2022-08-19T03:18:44.621Z,11.10
2022-08-19T03:21:18.148Z,11.80
2022-08-19T03:23:47.042Z,12.13
2022-08-19T03:26:17.351Z,11.30
2022-08-19T03:28:49.519Z,12.70
2022-08-19T03:31:45.664Z,11.17
2022-08-19T03:34:21.081Z,11.80
2022-08-19T03:36:50.072Z,11.50
2022-08-19T03:39:19.212Z,12.37
2022-08-19T03:42:32.456Z,13.27
2022-08-19T03:44:40.046Z,13.20
2022-08-19T03:47:09.180Z,13.03
2022-08-19T03:49:38.056Z,12.93
2022-08-19T03:52:08.687Z,12.17
2022-08-19T03:54:39.225Z,12.83
2022-08-19T03:57:10.251Z,11.53
2022-08-19T03:59:40.669Z,11.70
2022-08-19T04:02:12.664Z,13.60
2022-08-19T04:04:43.631Z,14.07
2022-08-19T04:07:14.129Z,13.17
2022-08-19T04:09:42.890Z,13.30
2022-08-19T04:12:12.960Z,13.87
2022-08-19T04:14:42.426Z,13.40
2022-08-19T04:17:11.133Z,13.70
2022-08-19T04:19:39.813Z,13.93
2022-08-19T04:22:09.164Z,13.97
2022-08-19T04:24:38.272Z,13.73
2022-08-19T04:27:07.874Z,14.50
2022-08-19T04:29:40.670Z,13.80
2022-08-19T04:32:10.007Z,13.90
2022-08-19T04:35:01.270Z,13.00
2022-08-19T04:37:35.325Z,15.37
2022-08-19T04:40:24.565Z,15.40
2022-08-19T04:42:53.278Z,14.00
2022-08-19T04:45:23.606Z,15.60
2022-08-19T04:47:58.509Z,16.50
2022-08-19T04:50:44.086Z,15.13
2022-08-19T04:53:14.847Z,14.20
2022-08-19T04:55:44.107Z,16.50
2022-08-19T04:58:13.028Z,16.43
2022-08-19T05:00:43.748Z,15.63
2022-08-19T05:03:12.737Z,15.00
2022-08-19T05:05:44.642Z,15.53
2022-08-19T05:08:15.297Z,15.33
2022-08-19T05:10:44.297Z,16.67
2022-08-19T05:13:13.235Z,15.80
2022-08-19T05:15:43.420Z,15.97
2022-08-19T05:18:32.357Z,15.47
2022-08-19T05:21:18.573Z,18.73
2022-08-19T05:23:47.173Z,15.07
2022-08-19T05:26:15.832Z,15.97
2022-08-19T05:28:44.494Z,15.13
2022-08-19T05:31:15.059Z,16.67
2022-08-19T05:33:43.802Z,14.93
2022-08-19T05:36:12.574Z,15.87
2022-08-19T05:38:41.183Z,14.40
2022-08-19T05:41:11.061Z,15.73
2022-08-19T05:43:39.928Z,15.93
2022-08-19T05:46:10.721Z,16.43
2022-08-19T05:48:40.744Z,14.87
2022-08-19T05:51:10.161Z,14.90
2022-08-19T05:53:40.060Z,17.47
2022-08-19T05:56:09.221Z,16.50
2022-08-19T05:58:38.802Z,15.40
2022-08-19T06:01:13.097Z,15.80
2022-08-19T06:03:43.664Z,14.77
2022-08-19T06:06:14.665Z,16.23
2022-08-19T06:08:44.126Z,16.87
2022-08-19T06:11:21.987Z,15.80
2022-08-19T06:13:59.753Z,15.53
2022-08-19T06:16:30.110Z,15.00
2022-08-19T06:19:03.007Z,16.50
2022-08-19T06:21:33.051Z,14.73
2022-08-19T06:24:02.054Z,15.37
2022-08-19T06:26:30.822Z,16.47
2022-08-19T06:28:59.681Z,15.77
2022-08-19T06:31:30.505Z,16.10
2022-08-19T06:34:00.617Z,14.90
2022-08-19T06:36:33.162Z,14.67
2022-08-19T06:39:02.728Z,15.47
2022-08-19T06:41:32.452Z,15.27
2022-08-19T06:44:01.211Z,15.60
2022-08-19T06:46:29.971Z,14.63
2022-08-19T06:49:06.253Z,14.50
2022-08-19T06:51:35.519Z,15.97
2022-08-19T06:54:19.213Z,14.50
2022-08-19T06:56:48.997Z,14.93
2022-08-19T06:59:20.151Z,15.50
2022-08-19T07:01:51.306Z,14.03
2022-08-19T07:04:23.827Z,14.10
2022-08-19T07:06:59.430Z,14.43
2022-08-19T07:09:55.365Z,13.67
2022-08-19T07:12:32.537Z,13.70
2022-08-19T07:15:01.259Z,13.50
2022-08-19T07:17:39.127Z,12.60
2022-08-19T07:20:10.518Z,12.00
2022-08-19T07:22:43.423Z,11.82
2022-08-19T07:25:17.140Z,11.55
2022-08-19T07:27:46.596Z,12.00
2022-08-19T07:30:26.223Z,11.13
2022-08-19T07:32:55.118Z,11.77
2022-08-19T07:35:26.973Z,11.80
2022-08-19T07:37:55.682Z,11.00
2022-08-19T07:40:24.615Z,10.82
2022-08-19T07:42:53.343Z,11.15
2022-08-19T07:45:22.058Z,11.00
2022-08-19T07:47:51.414Z,10.63
2022-08-19T07:50:21.795Z,11.23
2022-08-19T07:52:52.989Z,10.02
2022-08-19T07:55:42.204Z,9.60
2022-08-19T07:58:13.715Z,9.63
2022-08-19T08:00:43.395Z,9.63
2022-08-19T08:03:13.144Z,9.10
2022-08-19T08:05:58.610Z,9.70
2022-08-19T08:08:47.910Z,10.57
2022-08-19T08:11:19.959Z,10.43
2022-08-19T08:14:00.723Z,10.15
2022-08-19T08:16:32.458Z,9.38
2022-08-19T08:19:01.607Z,10.05
2022-08-19T08:21:30.454Z,8.73
2022-08-19T08:26:34.465Z,10.27
2022-08-19T08:29:12.489Z,9.77
2022-08-19T08:31:43.202Z,8.60
2022-08-19T08:34:13.338Z,8.15
2022-08-19T08:36:47.939Z,8.60
2022-08-19T08:39:20.417Z,9.02
2022-08-19T08:41:55.397Z,8.23
2022-08-19T08:44:30.468Z,9.25
2022-08-19T08:47:02.421Z,8.35
2022-08-19T08:49:36.037Z,10.13
2022-08-19T08:52:08.400Z,9.60
2022-08-19T08:54:48.827Z,8.85
2022-08-19T08:57:29.145Z,8.38
2022-08-19T09:00:15.520Z,9.10
2022-08-19T09:02:44.644Z,8.90
2022-08-19T09:05:22.703Z,8.38
2022-08-19T09:08:03.784Z,8.48
2022-08-19T09:10:44.441Z,9.45
2022-08-19T09:13:23.631Z,7.57
2022-08-19T09:16:05.022Z,8.88
2022-08-19T09:18:43.698Z,7.93
2022-08-19T09:21:13.340Z,8.20
2022-08-19T09:23:42.316Z,7.80
2022-08-19T09:26:16.348Z,7.70
2022-08-19T09:28:48.767Z,7.82
2022-08-19T09:31:20.050Z,7.80
2022-08-19T09:33:52.286Z,7.35
2022-08-19T09:36:33.806Z,7.32
2022-08-19T09:39:04.110Z,7.38
2022-08-19T09:41:37.428Z,6.75
2022-08-19T09:44:12.919Z,8.10
2022-08-19T09:46:41.680Z,7.43
2022-08-19T09:49:10.977Z,7.03
2022-08-19T09:51:45.885Z,7.20
2022-08-19T09:54:23.630Z,7.88
2022-08-19T09:56:55.807Z,8.65
2022-08-19T09:59:25.058Z,7.07
2022-08-19T10:01:53.920Z,7.18
2022-08-19T10:04:23.502Z,8.18
2022-08-19T10:06:57.883Z,8.48
2022-08-19T10:09:34.146Z,7.15
2022-08-19T10:12:06.681Z,7.65
2022-08-19T10:14:40.321Z,6.90
2022-08-19T10:17:19.192Z,6.55
2022-08-19T10:19:55.682Z,6.32
2022-08-19T10:22:25.942Z,6.18
2022-08-19T10:24:55.518Z,6.40
2022-08-19T10:27:26.413Z,7.10
2022-08-19T10:29:55.437Z,7.20
2022-08-19T10:32:33.832Z,6.07
2022-08-19T10:35:05.402Z,6.07
2022-08-19T10:37:35.290Z,7.30
2022-08-19T10:40:04.799Z,5.95
2022-08-19T10:42:38.080Z,7.22
2022-08-19T10:45:09.378Z,7.28
2022-08-19T10:47:40.808Z,6.35
2022-08-19T10:50:39.006Z,6.00
2022-08-19T10:53:11.722Z,6.55
2022-08-19T10:56:01.379Z,5.93
2022-08-19T10:58:32.439Z,5.85
2022-08-19T11:01:01.803Z,5.28
2022-08-19T11:03:31.579Z,5.63
2022-08-19T11:06:01.537Z,5.63
2022-08-19T11:08:32.119Z,6.38
2022-08-19T11:11:04.533Z,5.28
2022-08-19T11:13:38.520Z,5.07
2022-08-19T11:16:10.361Z,5.60
2022-08-19T11:18:41.241Z,5.43
2022-08-19T11:21:12.948Z,5.60
2022-08-19T11:23:45.050Z,6.25
2022-08-19T11:26:15.002Z,5.45
2022-08-19T11:28:46.695Z,5.40
2022-08-19T11:31:18.628Z,5.07
2022-08-19T11:33:48.044Z,6.55
2022-08-19T11:36:17.707Z,6.25
2022-08-19T11:38:49.809Z,5.82
2022-08-19T11:41:21.016Z,5.53
2022-08-19T11:43:54.195Z,4.65
2022-08-19T11:46:25.255Z,4.57
2022-08-19T11:48:55.801Z,4.80
2022-08-19T11:51:27.068Z,4.15
2022-08-19T11:53:57.499Z,5.40
2022-08-19T11:56:27.258Z,4.85
2022-08-19T11:58:59.012Z,4.85
2022-08-19T12:01:28.643Z,4.22
2022-08-19T12:03:58.927Z,3.80
2022-08-19T12:06:30.333Z,4.32
2022-08-19T12:09:00.932Z,3.45
2022-08-19T12:11:31.311Z,3.70
2022-08-19T12:14:05.398Z,3.70
2022-08-19T12:16:42.620Z,3.33
2022-08-19T12:19:27.038Z,3.20
2022-08-19T12:22:02.091Z,3.90
2022-08-19T12:24:33.913Z,3.78
2022-08-19T12:27:04.104Z,4.07
2022-08-19T12:29:35.051Z,5.88
2022-08-19T12:32:04.263Z,4.10
2022-08-19T12:34:35.217Z,3.85
2022-08-19T12:37:05.818Z,4.70
2022-08-19T12:39:38.417Z,4.40
2022-08-19T12:42:08.507Z,3.78
2022-08-19T12:44:40.676Z,4.20
2022-08-19T12:47:14.458Z,4.28
2022-08-19T12:49:53.387Z,4.57
2022-08-19T12:52:25.263Z,3.80
2022-08-19T12:54:55.563Z,3.72
2022-08-19T12:57:31.697Z,3.92
2022-08-19T13:00:08.099Z,3.63
2022-08-19T13:02:39.005Z,4.05
2022-08-19T13:05:12.384Z,3.88
2022-08-19T13:07:42.790Z,3.97
2022-08-19T13:10:13.776Z,3.40
2022-08-19T13:12:43.306Z,3.45
2022-08-19T13:15:16.892Z,4.13
2022-08-19T13:17:51.710Z,3.28
2022-08-19T13:20:23.578Z,3.63
2022-08-19T13:22:52.819Z,4.10
2022-08-19T13:25:22.394Z,4.20
2022-08-19T13:27:52.180Z,3.05
2022-08-19T13:30:40.984Z,2.72
2022-08-19T13:33:16.038Z,3.28
2022-08-19T13:35:48.737Z,3.22
2022-08-19T13:38:22.517Z,3.22
2022-08-19T13:40:55.222Z,4.07
2022-08-19T13:43:26.148Z,3.42
2022-08-19T13:45:58.708Z,3.78
2022-08-19T13:48:28.837Z,3.67
2022-08-19T13:50:58.070Z,3.90
2022-08-19T13:53:27.353Z,4.00
2022-08-19T13:55:56.133Z,3.53
2022-08-19T13:58:25.106Z,4.30
2022-08-19T14:00:55.389Z,3.40
2022-08-19T14:03:24.920Z,4.18
2022-08-19T14:05:53.813Z,3.50
2022-08-19T14:08:22.711Z,4.00
2022-08-19T14:10:52.609Z,4.00
2022-08-19T14:13:23.867Z,4.53
2022-08-19T14:15:54.341Z,4.20
2022-08-19T14:18:28.524Z,4.53
2022-08-19T14:20:57.989Z,4.18
2022-08-19T14:23:28.401Z,4.28
2022-08-19T14:26:06.173Z,4.18
2022-08-19T14:28:35.156Z,4.10
2022-08-19T14:31:03.894Z,3.83
2022-08-19T14:33:34.134Z,3.97
2022-08-19T14:36:02.741Z,4.57
2022-08-19T14:38:32.724Z,4.10
2022-08-19T14:41:14.290Z,4.18
2022-08-19T14:43:43.632Z,4.70
2022-08-19T14:46:13.923Z,4.40
2022-08-19T14:48:47.886Z,4.85
2022-08-19T14:51:21.607Z,4.82
2022-08-19T14:53:51.080Z,4.63
2022-08-19T14:56:22.320Z,4.90
2022-08-19T14:58:52.773Z,4.45
2022-08-19T15:01:23.351Z,4.95
2022-08-19T15:03:55.168Z,5.32
2022-08-19T15:06:24.571Z,5.38
2022-08-19T15:08:54.911Z,5.80
2022-08-19T15:11:28.008Z,5.68
2022-08-19T15:13:58.256Z,6.85
2022-08-19T15:16:28.391Z,7.00
2022-08-19T15:19:00.146Z,6.60
2022-08-19T15:21:30.983Z,7.10
2022-08-19T15:24:01.860Z,8.23
2022-08-19T15:26:33.562Z,9.43
2022-08-19T15:29:02.526Z,10.23
2022-08-19T15:31:38.216Z,11.63
2022-08-19T15:34:09.407Z,11.50
2022-08-19T15:36:38.523Z,11.73
2022-08-19T15:39:10.512Z,12.63
2022-08-19T15:41:39.847Z,11.97
2022-08-19T15:44:13.532Z,13.20
2022-08-19T15:46:46.309Z,15.17
2022-08-19T15:49:18.749Z,13.97
2022-08-19T15:51:52.026Z,15.00
2022-08-19T15:54:23.184Z,15.10
2022-08-19T15:57:10.199Z,15.60
2022-08-19T16:00:02.711Z,16.00
2022-08-19T16:02:49.842Z,16.73
2022-08-19T16:05:44.434Z,16.77
2022-08-19T16:08:13.356Z,17.00
2022-08-19T16:10:42.072Z,17.20
2022-08-19T16:13:11.791Z,16.17
2022-08-19T16:15:45.109Z,16.57
2022-08-19T16:18:14.375Z,16.73
2022-08-19T16:20:46.864Z,17.23
2022-08-19T16:23:16.788Z,17.40
2022-08-19T16:25:45.381Z,16.30
2022-08-19T16:28:14.142Z,16.87
2022-08-19T16:30:48.634Z,18.20
2022-08-19T16:33:23.180Z,15.93
2022-08-19T16:36:00.118Z,15.97
2022-08-19T16:38:37.936Z,18.03
2022-08-19T16:41:09.006Z,16.83
2022-08-19T16:43:51.603Z,17.10
2022-08-19T16:46:39.987Z,17.17
2022-08-19T16:49:54.504Z,16.87
2022-08-19T16:52:28.146Z,15.97
2022-08-19T16:54:57.990Z,16.33
2022-08-19T16:57:29.559Z,17.17
2022-08-19T16:59:59.725Z,16.40
2022-08-19T17:02:30.550Z,18.60
2022-08-19T17:05:02.012Z,17.90
2022-08-19T17:07:34.393Z,15.73
2022-08-19T17:10:04.368Z,17.60
2022-08-19T17:12:35.523Z,17.47
2022-08-19T17:15:07.512Z,17.27
2022-08-19T17:17:37.664Z,17.00
2022-08-19T17:20:08.488Z,18.33
2022-08-19T17:22:38.650Z,18.47
2022-08-19T17:25:11.780Z,21.60
2022-08-19T17:27:40.714Z,18.60
2022-08-19T17:30:10.561Z,16.83
2022-08-19T17:32:39.754Z,17.30
2022-08-19T17:35:09.976Z,16.10
2022-08-19T17:37:40.582Z,17.30
2022-08-19T17:40:11.020Z,18.20
2022-08-19T17:42:40.489Z,15.10
2022-08-19T17:45:13.493Z,15.80
2022-08-19T17:47:43.147Z,18.13
2022-08-19T17:50:14.532Z,19.30
2022-08-19T17:52:45.431Z,18.57
2022-08-19T17:55:14.363Z,18.03
2022-08-19T17:57:46.622Z,16.00
2022-08-19T18:00:17.729Z,14.67
2022-08-19T18:02:50.884Z,15.93
2022-08-19T18:05:21.384Z,16.00
2022-08-19T18:07:53.049Z,16.07
2022-08-19T18:10:24.297Z,17.73
2022-08-19T18:13:17.029Z,16.10
2022-08-19T18:15:47.723Z,17.33
2022-08-19T18:18:17.129Z,15.63
2022-08-19T18:20:47.255Z,16.30
2022-08-19T18:23:45.247Z,15.83
2022-08-19T18:26:06.948Z,15.90
2022-08-19T18:28:36.134Z,16.83
2022-08-19T18:31:05.197Z,22.67
2022-08-19T18:33:35.760Z,16.97
2022-08-19T18:36:13.767Z,16.13
2022-08-19T18:39:06.404Z,17.27
2022-08-19T18:41:54.484Z,16.80
2022-08-19T18:44:40.814Z,16.43
2022-08-19T18:47:27.206Z,15.57
2022-08-19T18:49:56.460Z,17.60
2022-08-19T18:52:27.703Z,17.73
2022-08-19T18:54:59.767Z,16.73
2022-08-19T18:57:28.987Z,16.00
2022-08-19T18:59:58.751Z,18.40
2022-08-19T19:02:28.061Z,16.07
2022-08-19T19:04:57.470Z,22.30
2022-08-19T19:07:29.859Z,20.20
2022-08-19T19:10:02.823Z,17.57
2022-08-19T19:12:34.316Z,17.80
2022-08-19T19:15:04.377Z,18.90
2022-08-19T19:17:38.819Z,17.97
2022-08-19T19:20:12.978Z,15.87
2022-08-19T19:22:44.143Z,18.47
2022-08-19T19:25:20.586Z,18.43
2022-08-19T19:27:57.543Z,16.30
2022-08-19T19:30:33.643Z,16.03
2022-08-19T19:33:05.559Z,19.00
2022-08-19T19:35:36.412Z,16.97
2022-08-19T19:38:05.523Z,17.43
2022-08-19T19:40:37.992Z,16.90
2022-08-19T19:43:09.284Z,16.40
2022-08-19T19:45:45.459Z,19.43
2022-08-19T19:48:18.865Z,20.23
2022-08-19T19:51:07.561Z,16.70
2022-08-19T19:53:42.843Z,18.40
2022-08-19T19:56:14.444Z,15.77
2022-08-19T19:58:51.479Z,17.03
2022-08-19T20:01:27.652Z,16.37
2022-08-19T20:04:01.973Z,14.63
2022-08-19T20:06:32.237Z,12.03
2022-08-19T20:09:19.291Z,12.83
2022-08-19T20:11:54.090Z,12.33
2022-08-19T20:14:29.472Z,12.10
2022-08-19T20:16:59.460Z,11.60
2022-08-19T20:19:34.596Z,11.40
2022-08-19T20:22:10.875Z,9.70
2022-08-19T20:24:42.808Z,10.40
2022-08-19T20:27:13.061Z,10.80
2022-08-19T20:29:45.005Z,9.80
2022-08-19T20:32:15.014Z,10.50
2022-08-19T20:34:45.138Z,10.43
2022-08-19T20:37:14.492Z,10.33
2022-08-19T20:39:44.662Z,10.00
2022-08-19T20:42:15.517Z,10.20
2022-08-19T20:44:44.498Z,10.57
2022-08-19T20:47:13.481Z,10.53
2022-08-19T20:49:42.892Z,11.10
2022-08-19T20:52:12.285Z,11.10
2022-08-19T20:54:41.880Z,10.47
2022-08-19T20:57:12.964Z,10.23
2022-08-19T20:59:45.463Z,10.20
2022-08-19T21:02:21.931Z,11.00
2022-08-19T21:04:50.687Z,11.37
2022-08-19T21:07:19.542Z,10.53
2022-08-19T21:09:48.789Z,10.20
2022-08-19T21:12:18.041Z,9.60
2022-08-19T21:14:48.657Z,10.60
2022-08-19T21:17:17.838Z,9.93
2022-08-19T21:19:46.556Z,10.90
2022-08-19T21:22:15.399Z,9.83
2022-08-19T21:24:44.527Z,9.77
2022-08-19T21:27:13.388Z,10.67
2022-08-19T21:29:42.472Z,9.67
2022-08-19T21:32:14.037Z,9.70
2022-08-19T21:34:43.912Z,9.50
2022-08-19T21:37:24.694Z,12.43
2022-08-19T21:39:54.384Z,9.73
2022-08-19T21:42:23.546Z,9.73
2022-08-19T21:44:52.431Z,10.53
2022-08-19T21:47:22.674Z,10.30
2022-08-19T21:49:51.414Z,9.90
2022-08-19T21:52:23.561Z,10.00
2022-08-19T21:54:52.999Z,10.30
2022-08-19T21:57:21.981Z,10.23
2022-08-19T21:59:50.676Z,10.97
2022-08-19T22:02:21.090Z,10.60
2022-08-19T22:04:52.897Z,10.70
2022-08-19T22:07:23.237Z,10.77
2022-08-19T22:09:53.030Z,9.60
2022-08-19T22:12:24.239Z,9.97
2022-08-19T22:14:53.645Z,10.50
2022-08-19T22:17:23.719Z,9.73
2022-08-19T22:19:55.088Z,10.70
2022-08-19T22:22:24.604Z,9.80
2022-08-19T22:24:53.962Z,10.63
2022-08-19T22:27:23.184Z,10.33
2022-08-19T22:29:52.569Z,10.43
2022-08-19T22:32:26.916Z,10.60
2022-08-19T22:35:01.040Z,10.20
2022-08-19T22:37:32.075Z,10.97
2022-08-19T22:40:01.295Z,10.30
2022-08-19T22:42:34.144Z,10.40
2022-08-19T22:45:02.971Z,9.60
2022-08-19T22:47:32.301Z,11.03
2022-08-19T22:50:07.475Z,11.20
2022-08-19T22:52:51.881Z,10.03
2022-08-19T22:55:21.136Z,10.17
2022-08-19T22:57:49.883Z,10.63
2022-08-19T23:00:18.946Z,10.47
2022-08-19T23:02:52.125Z,11.03
2022-08-19T23:05:25.664Z,10.93
2022-08-19T23:07:57.791Z,10.67
2022-08-19T23:10:29.311Z,11.00
2022-08-19T23:12:59.721Z,11.57
2022-08-19T23:15:30.508Z,10.57
2022-08-19T23:18:02.939Z,10.60
2022-08-19T23:20:35.427Z,10.30
2022-08-19T23:23:06.245Z,11.67
2022-08-19T23:25:36.468Z,10.30
2022-08-19T23:28:23.666Z,10.30
2022-08-19T23:30:54.070Z,10.70
2022-08-19T23:33:25.590Z,10.67
2022-08-19T23:36:17.522Z,10.90
2022-08-19T23:38:48.094Z,10.50
2022-08-19T23:41:19.093Z,10.90
2022-08-19T23:43:47.974Z,9.70
2022-08-19T23:46:27.395Z,9.70
2022-08-19T23:48:57.125Z,11.57
2022-08-19T23:51:27.513Z,10.87
2022-08-19T23:53:56.385Z,10.20
2022-08-19T23:56:25.081Z,11.00
2022-08-19T23:58:53.921Z,11.37
